Time;durP1;ratioP1;P1;durP2;ratioP2;P2;SDS_P1;SDS_P2;PMS_P1;PMS_P2;Temp;Humidity;BMP_temperature;BMP_pressure;BME280_temperature;BME280_humidity;BME280_pressure;Samples;Min_cycle;Max_cycle;Signal;HPM_P1;HPM_P2
2024/01/31 00:01:36;;;;;;;8.53;4.97;;;6.10;23.50;;;;;;5040114;28;46250;-70
2024/01/31 00:04:02;;;;;;;7.17;4.00;;;6.10;23.50;;;;;;5036785;28;46337;-71
2024/01/31 00:06:27;;;;;;;7.70;4.53;;;6.10;23.50;;;;;;5036904;28;46753;-71
2024/01/31 00:08:54;;;;;;;6.97;4.20;;;6.10;23.50;;;;;;5033194;28;46564;-71
2024/01/31 00:11:20;;;;;;;5.70;3.97;;;6.10;23.60;;;;;;5036842;28;46852;-70
2024/01/31 00:13:46;;;;;;;9.43;4.97;;;6.10;23.60;;;;;;5035858;28;47097;-70
2024/01/31 00:16:13;;;;;;;6.30;4.23;;;6.00;23.80;;;;;;5016455;28;46415;-70
2024/01/31 00:18:40;;;;;;;6.30;4.20;;;6.00;23.90;;;;;;5036179;28;46724;-71
2024/01/31 00:21:05;;;;;;;7.77;4.10;;;6.00;24.20;;;;;;5022624;28;46443;-70
2024/01/31 00:23:31;;;;;;;9.40;4.40;;;6.00;24.20;;;;;;5042297;28;46858;-70
2024/01/31 00:25:57;;;;;;;9.40;4.80;;;6.00;24.20;;;;;;5037028;28;46816;-71
2024/01/31 00:28:23;;;;;;;10.03;4.10;;;5.90;24.20;;;;;;5032138;28;46460;-69
2024/01/31 00:30:49;;;;;;;6.80;4.20;;;5.90;24.20;;;;;;5039203;28;46656;-70
2024/01/31 00:33:14;;;;;;;7.33;4.67;;;5.80;24.10;;;;;;5031573;28;46523;-70
2024/01/31 00:35:40;;;;;;;6.80;4.13;;;5.80;24.10;;;;;;5037245;28;46609;-71
2024/01/31 00:38:05;;;;;;;7.70;4.10;;;5.70;24.00;;;;;;5033360;28;46760;-70
2024/01/31 00:40:31;;;;;;;8.40;4.10;;;5.60;23.90;;;;;;5034942;28;46500;-70
2024/01/31 00:42:57;;;;;;;6.60;4.17;;;5.50;24.10;;;;;;5037374;28;46455;-70
2024/01/31 00:45:23;;;;;;;10.00;5.20;;;5.50;24.40;;;;;;5040298;28;45905;-70
2024/01/31 00:47:49;;;;;;;7.97;4.90;;;5.40;24.60;;;;;;5033242;28;46317;-71
2024/01/31 00:50:15;;;;;;;11.77;4.33;;;5.40;24.70;;;;;;5040804;28;46560;-71
2024/01/31 00:52:44;;;;;;;8.83;5.10;;;5.30;24.80;;;;;;5040696;28;46431;-71
2024/01/31 00:55:09;;;;;;;7.30;4.10;;;5.20;25.00;;;;;;5041173;28;46423;-72
2024/01/31 00:57:35;;;;;;;10.40;4.37;;;5.00;25.30;;;;;;5030339;28;46497;-71
2024/01/31 01:00:09;;;;;;;7.07;4.43;;;4.90;25.50;;;;;;5044748;28;46482;-71
2024/01/31 01:02:40;;;;;;;7.80;4.37;;;4.90;25.70;;;;;;5044579;28;46477;-72
2024/01/31 01:05:07;;;;;;;8.97;4.13;;;4.80;25.80;;;;;;5038872;28;46779;-70
2024/01/31 01:07:33;;;;;;;11.37;5.00;;;4.70;25.80;;;;;;5038840;28;46340;-71
2024/01/31 01:09:58;;;;;;;7.80;4.20;;;4.70;25.90;;;;;;5033177;28;46521;-70
2024/01/31 01:12:24;;;;;;;7.87;4.50;;;4.70;25.90;;;;;;5041305;28;46976;-70
2024/01/31 01:14:49;;;;;;;6.70;4.30;;;4.70;25.90;;;;;;5034796;28;46498;-70
2024/01/31 01:17:15;;;;;;;15.60;4.73;;;4.70;25.80;;;;;;5036678;28;46987;-71
2024/01/31 01:19:40;;;;;;;7.10;4.23;;;4.80;25.70;;;;;;5032477;28;46729;-71
2024/01/31 01:22:06;;;;;;;11.47;4.63;;;4.80;25.50;;;;;;5035693;28;46523;-69
2024/01/31 01:24:32;;;;;;;8.13;4.03;;;4.80;25.50;;;;;;5029502;28;46312;-70
2024/01/31 01:26:57;;;;;;;10.00;3.97;;;4.70;25.60;;;;;;5034765;28;46462;-70
2024/01/31 01:29:23;;;;;;;8.00;4.20;;;4.60;25.80;;;;;;5037417;28;46467;-70
2024/01/31 01:31:48;;;;;;;8.57;4.57;;;4.50;25.90;;;;;;5041196;28;47090;-70
2024/01/31 01:34:14;;;;;;;7.40;3.90;;;4.40;26.00;;;;;;5041899;28;46365;-71
2024/01/31 01:36:39;;;;;;;6.53;4.17;;;4.30;26.20;;;;;;5023839;28;46741;-71
2024/01/31 01:39:05;;;;;;;6.83;4.00;;;4.20;26.40;;;;;;5037928;28;45865;-71
2024/01/31 01:41:30;;;;;;;6.67;4.00;;;4.10;26.70;;;;;;5037491;28;46875;-70
2024/01/31 01:43:56;;;;;;;10.40;4.53;;;4.00;26.80;;;;;;5042491;28;46443;-69
2024/01/31 01:46:23;;;;;;;10.17;4.33;;;3.90;27.00;;;;;;5037885;28;46458;-71
2024/01/31 01:48:51;;;;;;;10.80;5.30;;;3.90;27.10;;;;;;5036428;28;46846;-71
2024/01/31 01:51:18;;;;;;;9.57;4.20;;;3.80;27.20;;;;;;5036046;28;46156;-71
2024/01/31 01:53:46;;;;;;;8.03;4.80;;;3.90;27.30;;;;;;5025979;28;46405;-71
2024/01/31 01:56:13;;;;;;;7.80;5.10;;;3.90;27.30;;;;;;5040223;28;46881;-71
2024/01/31 01:58:41;;;;;;;6.73;4.77;;;3.90;27.10;;;;;;5034745;28;46834;-71
2024/01/31 02:01:08;;;;;;;7.60;4.50;;;3.90;27.40;;;;;;5034309;28;46516;-70
2024/01/31 02:03:35;;;;;;;7.97;5.00;;;3.90;27.50;;;;;;5040633;28;46335;-69
2024/01/31 02:06:01;;;;;;;8.37;4.20;;;3.90;27.30;;;;;;5036781;28;46500;-71
2024/01/31 02:08:28;;;;;;;9.20;4.80;;;3.90;27.30;;;;;;5037402;28;46370;-70
2024/01/31 02:10:54;;;;;;;8.97;4.97;;;3.90;27.20;;;;;;5033878;28;47227;-69
2024/01/31 02:13:20;;;;;;;7.10;4.65;;;4.00;27.20;;;;;;5035111;28;46468;-72
2024/01/31 02:15:55;;;;;;;9.33;4.43;;;4.10;27.10;;;;;;5037255;28;46541;-70
2024/01/31 02:18:21;;;;;;;8.10;4.60;;;4.00;27.00;;;;;;5037393;28;46266;-69
2024/01/31 02:20:47;;;;;;;8.00;4.07;;;4.00;27.20;;;;;;5034507;28;46780;-71
2024/01/31 02:23:13;;;;;;;6.00;3.87;;;3.90;27.40;;;;;;5031115;28;46857;-71
2024/01/31 02:25:39;;;;;;;6.33;3.47;;;3.80;27.60;;;;;;5036152;28;46506;-71
2024/01/31 02:28:05;;;;;;;6.50;4.07;;;3.70;27.80;;;;;;5029026;28;46807;-71
2024/01/31 02:30:31;;;;;;;9.60;4.87;;;3.60;28.00;;;;;;5028140;28;46853;-71
2024/01/31 02:32:56;;;;;;;7.57;4.40;;;3.60;28.10;;;;;;5032721;28;46798;-70
2024/01/31 02:35:23;;;;;;;10.20;4.77;;;3.60;28.10;;;;;;5037976;28;45805;-69
2024/01/31 02:37:49;;;;;;;8.23;4.23;;;3.60;28.10;;;;;;5037697;28;46559;-71
2024/01/31 02:40:15;;;;;;;8.73;5.20;;;3.60;28.10;;;;;;5038320;28;46028;-71
2024/01/31 02:42:41;;;;;;;7.72;4.15;;;3.60;28.10;;;;;;5041603;28;46528;-71
2024/01/31 02:45:07;;;;;;;8.40;4.30;;;3.60;28.10;;;;;;5043229;28;46817;-70
2024/01/31 02:47:36;;;;;;;7.50;4.27;;;3.60;28.30;;;;;;5042595;28;46424;-71
2024/01/31 02:50:03;;;;;;;8.80;5.10;;;3.60;28.30;;;;;;5040568;28;47550;-70
2024/01/31 02:52:28;;;;;;;7.75;4.45;;;3.50;28.20;;;;;;5044518;28;46478;-71
2024/01/31 02:54:54;;;;;;;5.63;4.30;;;3.50;28.30;;;;;;5042222;28;45828;-71
2024/01/31 02:57:19;;;;;;;7.87;4.10;;;3.50;28.20;;;;;;5041652;28;46885;-70
2024/01/31 02:59:45;;;;;;;7.50;4.37;;;3.60;28.30;;;;;;5035325;28;47756;-70
2024/01/31 03:02:13;;;;;;;7.40;4.50;;;3.60;28.20;;;;;;5042188;28;46843;-70
2024/01/31 03:04:39;;;;;;;6.28;4.40;;;3.60;28.30;;;;;;5040496;28;46846;-71
2024/01/31 03:07:04;;;;;;;7.53;4.70;;;3.60;28.30;;;;;;5039016;28;46396;-70
2024/01/31 03:09:30;;;;;;;10.43;5.27;;;3.60;28.40;;;;;;5044188;28;47053;-70
2024/01/31 03:11:56;;;;;;;6.60;4.80;;;3.60;28.50;;;;;;5035210;28;46766;-69
2024/01/31 03:14:21;;;;;;;8.50;4.50;;;3.60;28.50;;;;;;5043054;28;46449;-70
2024/01/31 03:16:47;;;;;;;7.70;4.63;;;3.60;28.60;;;;;;5044943;28;46377;-70
2024/01/31 03:19:13;;;;;;;8.80;5.10;;;3.60;28.70;;;;;;5042210;28;46422;-70
2024/01/31 03:21:38;;;;;;;9.70;5.00;;;3.60;28.80;;;;;;5044937;28;46874;-70
2024/01/31 03:24:05;;;;;;;7.47;4.60;;;3.60;28.70;;;;;;5038717;28;46503;-71
2024/01/31 03:26:30;;;;;;;6.83;4.73;;;3.70;28.40;;;;;;5039687;28;46477;-71
2024/01/31 03:28:56;;;;;;;9.47;4.80;;;3.80;28.30;;;;;;5038320;28;46847;-71
2024/01/31 03:31:22;;;;;;;5.47;3.90;;;3.90;28.10;;;;;;5042954;28;46532;-70
2024/01/31 03:33:47;;;;;;;6.00;3.70;;;3.90;28.00;;;;;;5039941;28;46478;-70
2024/01/31 03:36:13;;;;;;;6.10;3.87;;;4.00;27.90;;;;;;5040076;28;46481;-70
2024/01/31 03:38:39;;;;;;;6.90;4.07;;;4.10;28.00;;;;;;5037296;28;47556;-71
2024/01/31 03:41:07;;;;;;;7.10;4.18;;;4.10;27.90;;;;;;5042908;28;46328;-70
2024/01/31 03:43:33;;;;;;;7.17;4.50;;;4.10;27.70;;;;;;5033299;28;45829;-70
2024/01/31 03:46:00;;;;;;;7.13;4.40;;;4.20;27.60;;;;;;5039601;28;46919;-70
2024/01/31 03:48:27;;;;;;;6.07;3.93;;;4.30;27.50;;;;;;5037380;28;46712;-72
2024/01/31 03:50:52;;;;;;;8.18;5.03;;;4.30;27.50;;;;;;5035051;28;46777;-72
2024/01/31 03:53:18;;;;;;;6.33;4.30;;;4.40;27.70;;;;;;5034146;28;46903;-70
2024/01/31 03:55:44;;;;;;;6.97;4.10;;;4.30;27.70;;;;;;5033403;28;47081;-70
2024/01/31 03:58:10;;;;;;;5.63;3.83;;;4.30;27.90;;;;;;5043196;28;46448;-70
2024/01/31 04:00:35;;;;;;;8.33;4.60;;;4.30;28.00;;;;;;5039646;28;46634;-70
2024/01/31 04:03:01;;;;;;;6.77;4.70;;;4.20;28.10;;;;;;5037805;28;47092;-71
2024/01/31 04:05:26;;;;;;;8.40;5.13;;;4.20;28.50;;;;;;5039784;28;45930;-71
2024/01/31 04:07:52;;;;;;;5.80;3.80;;;4.10;28.60;;;;;;5041459;28;46425;-71
2024/01/31 04:10:17;;;;;;;7.27;4.57;;;4.10;28.80;;;;;;5039457;28;46887;-72
2024/01/31 04:12:43;;;;;;;5.80;3.60;;;4.00;29.00;;;;;;5037964;28;46355;-70
2024/01/31 04:15:09;;;;;;;7.80;4.20;;;4.00;29.10;;;;;;5038985;28;46801;-70
2024/01/31 04:17:34;;;;;;;7.10;4.30;;;4.00;29.30;;;;;;5021284;28;46486;-71
2024/01/31 04:20:00;;;;;;;9.60;4.83;;;4.20;29.50;;;;;;5042664;28;46892;-70
2024/01/31 04:22:25;;;;;;;8.40;5.00;;;4.10;29.10;;;;;;5036740;28;46784;-70
2024/01/31 04:24:52;;;;;;;7.43;4.60;;;4.20;28.80;;;;;;5039622;28;46535;-72
2024/01/31 04:27:17;;;;;;;8.67;5.30;;;4.40;28.70;;;;;;5037352;28;47002;-71
2024/01/31 04:29:43;;;;;;;7.90;4.90;;;4.50;28.40;;;;;;5039048;28;46467;-71
2024/01/31 04:32:08;;;;;;;8.07;5.10;;;4.60;28.30;;;;;;5038018;28;46753;-72
2024/01/31 04:34:38;;;;;;;5.80;4.30;;;4.70;28.20;;;;;;5040352;28;46193;-70
2024/01/31 04:37:04;;;;;;;7.60;4.10;;;4.70;28.20;;;;;;5039216;28;46622;-71
2024/01/31 04:39:29;;;;;;;6.00;3.90;;;4.80;28.30;;;;;;5041603;28;46510;-71
2024/01/31 04:41:55;;;;;;;6.53;4.47;;;4.70;28.20;;;;;;5036734;28;46374;-71
2024/01/31 04:44:21;;;;;;;8.10;4.20;;;4.70;28.30;;;;;;5041667;28;46661;-70
2024/01/31 04:46:46;;;;;;;5.80;3.63;;;4.70;28.40;;;;;;5042452;28;47138;-72
2024/01/31 04:49:12;;;;;;;7.07;4.03;;;4.70;28.50;;;;;;5041991;28;46651;-71
2024/01/31 04:51:41;;;;;;;8.97;4.30;;;4.70;28.60;;;;;;5038326;28;46633;-71
2024/01/31 04:54:07;;;;;;;7.67;4.10;;;4.80;28.60;;;;;;5036887;28;46387;-70
2024/01/31 04:56:33;;;;;;;7.13;4.20;;;4.80;28.70;;;;;;5039599;28;46749;-72
2024/01/31 04:58:59;;;;;;;7.25;4.20;;;4.90;28.90;;;;;;5038607;28;46570;-70
2024/01/31 05:01:24;;;;;;;6.90;4.17;;;4.90;28.70;;;;;;5031797;28;46501;-71
2024/01/31 05:03:50;;;;;;;8.43;4.50;;;5.00;28.80;;;;;;5036246;28;46851;-71
2024/01/31 05:06:15;;;;;;;13.17;4.47;;;5.10;28.70;;;;;;5039205;28;46060;-71
2024/01/31 05:08:41;;;;;;;8.20;4.57;;;5.10;28.50;;;;;;5040108;28;46454;-70
2024/01/31 05:11:07;;;;;;;9.13;4.50;;;5.20;28.40;;;;;;5029883;28;46969;-72
2024/01/31 05:13:32;;;;;;;7.80;3.80;;;5.20;28.30;;;;;;5033490;28;46579;-71
2024/01/31 05:15:58;;;;;;;8.40;4.40;;;5.30;28.40;;;;;;5021261;28;46533;-69
2024/01/31 05:18:24;;;;;;;6.70;3.53;;;5.20;28.30;;;;;;5026754;28;46523;-69
2024/01/31 05:20:49;;;;;;;8.70;4.53;;;5.20;28.30;;;;;;5032625;28;46491;-69
2024/01/31 05:23:15;;;;;;;5.90;3.70;;;5.20;28.60;;;;;;5033678;28;46822;-70
2024/01/31 05:25:40;;;;;;;6.70;4.20;;;5.10;28.50;;;;;;5039104;28;46789;-71
2024/01/31 05:28:06;;;;;;;6.43;4.07;;;5.10;28.50;;;;;;5038114;28;46606;-73
2024/01/31 05:30:31;;;;;;;6.13;3.77;;;5.10;28.50;;;;;;5038518;28;46807;-71
2024/01/31 05:32:57;;;;;;;4.60;3.30;;;5.10;28.60;;;;;;5035535;28;46588;-71
2024/01/31 05:35:22;;;;;;;6.83;3.27;;;5.20;28.70;;;;;;5038752;28;47034;-71
2024/01/31 05:37:48;;;;;;;7.60;4.20;;;5.10;28.50;;;;;;5034782;28;47058;-71
2024/01/31 05:40:16;;;;;;;6.60;3.60;;;5.20;28.50;;;;;;5036648;28;46554;-72
2024/01/31 05:42:43;;;;;;;7.13;3.93;;;5.20;28.60;;;;;;5041892;28;46837;-72
2024/01/31 05:45:09;;;;;;;6.50;4.00;;;5.20;28.60;;;;;;5037919;28;46389;-71
2024/01/31 05:47:35;;;;;;;6.53;3.93;;;5.20;28.60;;;;;;5041379;28;46656;-71
2024/01/31 05:50:01;;;;;;;7.63;4.20;;;5.20;28.70;;;;;;5036279;28;45908;-71
2024/01/31 05:52:26;;;;;;;8.43;4.50;;;5.20;28.70;;;;;;5035869;28;46752;-70
2024/01/31 05:54:52;;;;;;;16.50;7.77;;;5.20;28.80;;;;;;5035332;28;47664;-72
2024/01/31 05:57:18;;;;;;;7.40;4.10;;;5.10;28.70;;;;;;5039730;28;45911;-72
2024/01/31 05:59:43;;;;;;;6.33;3.63;;;5.10;28.90;;;;;;5009335;28;46417;-71
2024/01/31 06:02:09;;;;;;;5.20;3.13;;;5.10;28.90;;;;;;5032515;28;46795;-71
2024/01/31 06:04:34;;;;;;;6.00;3.70;;;5.00;29.00;;;;;;5037947;28;47313;-72
2024/01/31 06:07:00;;;;;;;7.70;4.17;;;4.90;29.30;;;;;;5038090;28;46808;-72
2024/01/31 06:09:26;;;;;;;8.67;4.30;;;4.80;29.60;;;;;;5041322;28;45897;-72
2024/01/31 06:11:52;;;;;;;8.00;4.17;;;4.70;29.80;;;;;;5041271;28;46653;-71
2024/01/31 06:14:17;;;;;;;7.03;4.03;;;4.70;30.00;;;;;;5037294;28;46809;-72
2024/01/31 06:16:43;;;;;;;6.37;3.40;;;4.60;30.00;;;;;;5038652;28;46422;-71
2024/01/31 06:19:09;;;;;;;7.63;3.57;;;4.50;30.40;;;;;;5040816;28;46524;-71
2024/01/31 06:21:34;;;;;;;7.80;4.43;;;4.40;30.60;;;;;;5034254;28;46556;-71
2024/01/31 06:24:00;;;;;;;7.20;4.47;;;4.40;30.80;;;;;;5048429;28;47513;-71
2024/01/31 06:26:28;;;;;;;8.20;4.30;;;4.50;30.70;;;;;;5038642;28;46483;-71
2024/01/31 06:28:54;;;;;;;6.20;4.40;;;4.40;30.60;;;;;;5038935;28;46719;-70
2024/01/31 06:31:27;;;;;;;7.50;4.13;;;4.40;30.30;;;;;;5041586;28;46483;-72
2024/01/31 06:33:53;;;;;;;9.80;5.27;;;4.50;30.10;;;;;;5037468;28;47255;-70
2024/01/31 06:36:20;;;;;;;10.33;4.43;;;4.60;29.90;;;;;;5041564;28;46560;-72
2024/01/31 06:38:46;;;;;;;8.87;5.10;;;4.60;29.70;;;;;;5039400;28;46447;-72
2024/01/31 06:41:15;;;;;;;10.20;5.10;;;4.70;29.60;;;;;;5041891;28;46548;-72
2024/01/31 06:43:41;;;;;;;12.53;5.60;;;4.70;29.50;;;;;;5038061;28;46513;-72
2024/01/31 06:46:07;;;;;;;8.77;5.70;;;4.80;29.50;;;;;;5038009;28;46472;-72
2024/01/31 06:48:33;;;;;;;44.33;18.67;;;4.80;29.60;;;;;;5038296;28;46460;-71
2024/01/31 06:50:58;;;;;;;8.70;5.20;;;4.80;29.60;;;;;;5040484;28;46759;-71
2024/01/31 06:53:24;;;;;;;8.43;5.07;;;4.70;29.60;;;;;;5040566;28;46483;-71
2024/01/31 06:55:50;;;;;;;8.68;5.15;;;4.60;30.10;;;;;;5042453;28;46499;-71
2024/01/31 06:58:15;;;;;;;8.90;5.57;;;4.50;30.00;;;;;;5035061;28;46783;-71
2024/01/31 07:00:41;;;;;;;10.23;6.80;;;4.50;30.00;;;;;;5040335;28;46591;-70
2024/01/31 07:03:08;;;;;;;11.63;7.30;;;4.60;29.90;;;;;;5039577;28;46484;-72
2024/01/31 07:05:33;;;;;;;14.23;7.30;;;4.60;29.80;;;;;;5035617;28;46653;-71
2024/01/31 07:07:59;;;;;;;11.87;7.47;;;4.70;29.80;;;;;;5039854;28;46706;-71
2024/01/31 07:10:25;;;;;;;8.83;5.80;;;4.70;29.70;;;;;;5041231;28;46579;-71
2024/01/31 07:12:52;;;;;;;9.37;5.67;;;4.80;29.80;;;;;;5040954;28;46369;-71
2024/01/31 07:15:19;;;;;;;10.87;5.50;;;5.00;29.80;;;;;;5022258;28;46824;-70
2024/01/31 07:17:45;;;;;;;8.53;5.40;;;4.90;29.60;;;;;;5037893;28;46811;-71
2024/01/31 07:20:11;;;;;;;10.77;5.50;;;5.00;29.40;;;;;;5025053;28;47149;-71
2024/01/31 07:22:37;;;;;;;25.77;10.57;;;5.10;29.20;;;;;;5016413;28;46738;-70
2024/01/31 07:25:03;;;;;;;61.73;19.00;;;5.30;29.00;;;;;;5033625;28;46521;-70
2024/01/31 07:27:29;;;;;;;43.40;18.50;;;5.40;28.70;;;;;;5032189;28;46467;-71
2024/01/31 07:29:55;;;;;;;27.17;12.03;;;5.50;28.60;;;;;;5042468;28;46505;-72
2024/01/31 07:32:20;;;;;;;17.40;8.60;;;5.50;28.50;;;;;;5041642;28;47121;-70
2024/01/31 07:34:47;;;;;;;12.37;6.43;;;5.50;28.50;;;;;;5040275;28;46356;-71
2024/01/31 07:37:13;;;;;;;9.53;5.50;;;5.60;28.60;;;;;;5038088;28;46431;-72
2024/01/31 07:39:38;;;;;;;11.33;6.70;;;5.60;28.70;;;;;;5044651;28;46603;-73
2024/01/31 07:42:04;;;;;;;10.83;6.00;;;5.70;28.60;;;;;;5041835;28;47106;-72
2024/01/31 07:44:29;;;;;;;10.00;5.50;;;5.80;28.40;;;;;;5038443;28;46767;-71
2024/01/31 07:46:55;;;;;;;12.03;6.27;;;6.00;28.40;;;;;;5035034;28;46445;-72
2024/01/31 07:49:20;;;;;;;29.30;9.77;;;6.00;28.30;;;;;;5038454;28;46485;-71
2024/01/31 07:51:46;;;;;;;22.70;9.07;;;6.10;28.10;;;;;;5041655;28;46484;-71
2024/01/31 07:54:15;;;;;;;22.93;9.30;;;6.20;29.00;;;;;;5041007;28;46520;-72
2024/01/31 07:56:40;;;;;;;28.83;10.43;;;6.30;28.10;;;;;;5038682;28;46710;-72
2024/01/31 07:59:06;;;;;;;26.13;9.70;;;6.40;28.00;;;;;;5037991;28;47227;-72
2024/01/31 08:01:31;;;;;;;19.63;7.93;;;6.60;28.00;;;;;;5019678;28;46530;-71
2024/01/31 08:03:57;;;;;;;18.97;9.00;;;6.70;27.50;;;;;;5041413;28;46361;-71
2024/01/31 08:06:23;;;;;;;13.07;6.67;;;6.90;27.20;;;;;;5040082;28;46357;-71
2024/01/31 08:08:49;;;;;;;6.40;4.17;;;7.10;26.70;;;;;;5044087;28;46799;-71
2024/01/31 08:11:14;;;;;;;9.13;4.27;;;7.30;26.50;;;;;;5026092;28;47185;-71
2024/01/31 08:13:40;;;;;;;6.60;3.80;;;7.50;26.30;;;;;;5037809;28;46400;-69
2024/01/31 08:16:06;;;;;;;7.80;4.60;;;7.60;26.30;;;;;;5025948;28;46834;-73
2024/01/31 08:18:32;;;;;;;9.43;4.47;;;7.70;26.20;;;;;;5038489;28;46520;-72
2024/01/31 08:20:57;;;;;;;13.67;6.10;;;7.80;26.10;;;;;;5042968;28;46412;-72
2024/01/31 08:23:23;;;;;;;15.00;5.77;;;7.90;26.00;;;;;;5044763;28;46829;-68
2024/01/31 08:25:49;;;;;;;12.70;5.33;;;7.90;26.00;;;;;;5039552;28;46539;-67
2024/01/31 08:28:15;;;;;;;8.17;5.10;;;8.00;25.80;;;;;;5038084;28;46634;-68
2024/01/31 08:30:40;;;;;;;7.27;4.43;;;8.00;25.50;;;;;;5042982;28;47037;-70
2024/01/31 08:33:06;;;;;;;6.83;4.07;;;8.10;25.60;;;;;;5039985;28;46511;-69
2024/01/31 08:35:32;;;;;;;6.10;3.60;;;8.20;25.70;;;;;;5035822;28;45829;-67
2024/01/31 08:37:57;;;;;;;7.03;4.50;;;8.30;25.70;;;;;;5053396;28;46727;-66
2024/01/31 08:40:23;;;;;;;12.43;6.00;;;8.30;25.70;;;;;;5034331;28;46689;-67
2024/01/31 08:42:49;;;;;;;11.20;6.00;;;8.30;25.70;;;;;;5035491;28;46195;-67
2024/01/31 08:45:14;;;;;;;12.87;5.40;;;8.40;25.80;;;;;;5017684;28;46567;-66
2024/01/31 08:47:41;;;;;;;13.77;6.63;;;8.40;25.80;;;;;;5032809;28;46458;-67
2024/01/31 08:50:07;;;;;;;10.57;6.57;;;8.50;25.80;;;;;;5046828;28;46523;-67
2024/01/31 08:52:34;;;;;;;21.33;7.70;;;8.50;25.50;;;;;;5045848;28;46373;-67
2024/01/31 08:54:59;;;;;;;12.63;7.43;;;8.60;25.50;;;;;;5041137;28;46379;-67
2024/01/31 08:57:25;;;;;;;13.97;8.00;;;8.70;25.10;;;;;;5037874;28;46517;-67
2024/01/31 08:59:51;;;;;;;11.20;6.00;;;8.80;24.90;;;;;;5038555;28;46135;-67
2024/01/31 09:02:16;;;;;;;11.90;6.83;;;9.00;24.70;;;;;;5038820;28;46781;-67
2024/01/31 09:04:42;;;;;;;9.63;4.20;;;9.20;24.40;;;;;;5030836;28;46931;-67
2024/01/31 09:07:07;;;;;;;8.20;4.93;;;9.30;24.10;;;;;;5038773;28;46639;-68
2024/01/31 09:09:37;;;;;;;11.47;6.30;;;9.50;24.00;;;;;;5048503;28;46620;-67
2024/01/31 09:12:07;;;;;;;11.33;6.83;;;9.60;23.80;;;;;;5045168;28;46356;-70
2024/01/31 09:14:33;;;;;;;9.43;4.83;;;9.80;23.60;;;;;;5041814;28;45937;-67
2024/01/31 09:16:58;;;;;;;10.10;4.77;;;9.90;23.20;;;;;;5039006;28;45867;-67
2024/01/31 09:19:25;;;;;;;8.37;4.13;;;10.00;22.50;;;;;;5039056;28;46705;-68
2024/01/31 09:21:51;;;;;;;8.43;4.27;;;10.10;22.40;;;;;;5051080;28;45787;-68
2024/01/31 09:24:16;;;;;;;8.80;4.70;;;10.10;22.20;;;;;;5036259;28;46561;-70
2024/01/31 09:26:42;;;;;;;12.93;4.90;;;10.20;22.00;;;;;;5025048;28;46520;-68
2024/01/31 09:29:07;;;;;;;10.37;5.37;;;10.30;21.70;;;;;;5038992;28;46499;-68
2024/01/31 09:31:33;;;;;;;8.37;5.50;;;10.30;21.40;;;;;;5041683;28;46398;-69
2024/01/31 09:33:59;;;;;;;9.70;5.30;;;10.30;21.30;;;;;;5041010;28;46518;-67
2024/01/31 09:36:26;;;;;;;9.37;5.10;;;10.40;21.20;;;;;;5036474;28;46377;-67
2024/01/31 09:38:51;;;;;;;8.70;4.73;;;10.50;20.80;;;;;;5034585;28;46714;-68
2024/01/31 09:41:17;;;;;;;11.07;5.97;;;10.60;20.60;;;;;;5020358;28;46393;-68
2024/01/31 09:43:44;;;;;;;14.90;5.37;;;10.80;20.30;;;;;;5036134;28;46575;-68
2024/01/31 09:46:10;;;;;;;10.10;4.77;;;10.90;20.00;;;;;;5038602;28;46850;-68
2024/01/31 09:48:37;;;;;;;10.03;5.10;;;11.10;19.80;;;;;;5039679;28;47424;-67
2024/01/31 09:51:03;;;;;;;8.10;4.47;;;11.30;19.50;;;;;;5040311;28;46746;-69
2024/01/31 09:53:33;;;;;;;7.87;4.10;;;11.40;19.00;;;;;;5027665;28;46785;-68
2024/01/31 09:56:00;;;;;;;9.87;5.50;;;11.60;18.80;;;;;;5041016;28;46687;-69
2024/01/31 09:58:26;;;;;;;7.80;4.37;;;11.60;18.70;;;;;;5037926;28;46614;-70
2024/01/31 10:00:52;;;;;;;9.00;4.27;;;11.50;18.70;;;;;;5037720;28;46571;-68
2024/01/31 10:03:18;;;;;;;8.33;5.00;;;11.40;18.40;;;;;;5038836;28;46459;-69
2024/01/31 10:05:44;;;;;;;8.50;4.53;;;11.30;18.60;;;;;;5048051;28;46809;-69
2024/01/31 10:08:11;;;;;;;7.70;4.23;;;11.20;18.90;;;;;;5041379;28;47749;-68
2024/01/31 10:10:37;;;;;;;9.63;4.73;;;11.20;18.80;;;;;;5034770;28;46393;-69
2024/01/31 10:13:04;;;;;;;8.07;4.33;;;11.10;19.10;;;;;;5026764;28;46268;-68
2024/01/31 10:15:31;;;;;;;6.67;4.67;;;11.10;19.10;;;;;;5035059;28;46720;-69
2024/01/31 10:17:57;;;;;;;8.73;4.50;;;11.10;19.00;;;;;;5035841;28;46667;-69
2024/01/31 10:20:23;;;;;;;9.57;4.17;;;11.20;19.00;;;;;;5043887;28;46430;-67
2024/01/31 10:22:48;;;;;;;9.43;4.20;;;11.10;18.70;;;;;;5035313;28;46664;-69
2024/01/31 10:25:17;;;;;;;9.40;4.40;;;11.10;18.70;;;;;;5040730;28;46530;-68
2024/01/31 10:27:47;;;;;;;7.73;4.40;;;11.00;18.70;;;;;;5038145;28;46424;-69
2024/01/31 10:30:14;;;;;;;8.43;4.23;;;11.10;18.70;;;;;;5034159;28;46373;-68
2024/01/31 10:32:45;;;;;;;5.87;3.80;;;11.10;18.50;;;;;;5040893;28;46459;-69
2024/01/31 10:35:11;;;;;;;11.20;4.37;;;11.10;18.60;;;;;;5039956;28;46362;-72
2024/01/31 10:37:37;;;;;;;7.70;4.67;;;11.10;18.40;;;;;;5038957;28;47180;-71
2024/01/31 10:40:07;;;;;;;8.97;4.67;;;11.10;18.50;;;;;;5041904;28;46519;-72
2024/01/31 10:42:32;;;;;;;6.77;4.10;;;11.10;18.50;;;;;;5045242;28;46358;-72
2024/01/31 10:44:58;;;;;;;10.60;4.90;;;11.10;18.60;;;;;;5040890;28;46380;-72
2024/01/31 10:47:24;;;;;;;13.20;4.77;;;11.20;18.50;;;;;;5041787;28;46465;-72
2024/01/31 10:49:50;;;;;;;7.87;4.60;;;11.20;18.40;;;;;;5040153;28;46558;-71
2024/01/31 10:52:20;;;;;;;10.03;4.60;;;11.20;18.20;;;;;;5043944;28;46827;-72
2024/01/31 10:54:56;;;;;;;14.20;4.70;;;11.10;18.40;;;;;;5043329;28;46420;-71
2024/01/31 10:57:22;;;;;;;10.43;4.43;;;10.90;18.30;;;;;;5043541;28;46879;-71
2024/01/31 10:59:51;;;;;;;11.00;5.30;;;11.00;18.40;;;;;;5039643;28;46714;-71
2024/01/31 11:02:17;;;;;;;8.73;5.90;;;11.10;18.30;;;;;;5046493;28;46792;-71
2024/01/31 11:04:43;;;;;;;10.40;5.00;;;11.10;18.40;;;;;;5040657;28;46842;-71
2024/01/31 11:07:21;;;;;;;13.60;5.80;;;11.30;18.10;;;;;;5042014;28;47134;-72
2024/01/31 11:09:48;;;;;;;11.20;5.13;;;11.20;18.00;;;;;;5039131;28;46833;-71
2024/01/31 11:12:14;;;;;;;9.60;5.23;;;11.20;17.70;;;;;;5041985;28;46785;-71
2024/01/31 11:14:44;;;;;;;10.03;5.40;;;11.10;17.80;;;;;;5034539;28;46834;-72
2024/01/31 11:17:10;;;;;;;11.40;4.90;;;11.30;17.80;;;;;;5039273;28;47081;-72
2024/01/31 11:19:48;;;;;;;7.87;4.70;;;11.30;17.80;;;;;;5037653;28;46258;-72
2024/01/31 11:22:14;;;;;;;8.03;5.27;;;11.60;17.60;;;;;;5046971;28;46472;-71
2024/01/31 11:24:48;;;;;;;7.10;5.10;;;12.00;17.30;;;;;;5044027;28;46887;-73
2024/01/31 11:27:15;;;;;;;10.70;5.43;;;12.20;16.90;;;;;;5042216;28;46626;-72
2024/01/31 11:29:48;;;;;;;12.20;6.17;;;12.60;17.20;;;;;;5045400;28;46502;-71
2024/01/31 11:32:15;;;;;;;9.40;5.27;;;12.80;15.90;;;;;;5042160;28;46860;-71
2024/01/31 11:34:41;;;;;;;11.60;5.80;;;12.90;15.80;;;;;;5039188;28;46802;-71
2024/01/31 11:37:07;;;;;;;8.23;5.50;;;13.10;15.90;;;;;;5040722;28;46652;-71
2024/01/31 11:39:33;;;;;;;9.40;4.30;;;13.30;15.30;;;;;;5041651;28;46464;-70
2024/01/31 11:41:59;;;;;;;12.80;6.10;;;13.30;15.30;;;;;;5021878;28;46509;-70
2024/01/31 11:44:25;;;;;;;9.37;5.20;;;13.10;14.50;;;;;;5035914;28;46849;-71
2024/01/31 11:46:54;;;;;;;9.20;5.80;;;13.00;14.90;;;;;;5044337;28;47297;-71
2024/01/31 11:49:20;;;;;;;7.43;5.40;;;13.20;14.90;;;;;;5049356;28;46853;-73
2024/01/31 11:51:45;;;;;;;8.80;5.30;;;13.10;14.60;;;;;;5039371;28;46505;-72
2024/01/31 11:54:11;;;;;;;9.77;6.13;;;13.30;14.90;;;;;;5037843;28;46653;-72
2024/01/31 11:56:37;;;;;;;8.93;5.47;;;13.30;15.00;;;;;;5039702;28;46504;-72
2024/01/31 11:59:03;;;;;;;12.67;5.40;;;13.30;15.30;;;;;;5039214;28;46466;-71
2024/01/31 12:01:30;;;;;;;10.43;4.90;;;13.40;15.40;;;;;;5037228;28;46782;-73
2024/01/31 12:03:56;;;;;;;12.10;5.23;;;13.40;14.90;;;;;;5042018;28;46473;-72
2024/01/31 12:06:21;;;;;;;10.60;5.30;;;13.40;14.90;;;;;;5039605;28;47109;-72
2024/01/31 12:08:49;;;;;;;14.10;5.67;;;13.30;15.00;;;;;;5045901;28;46927;-73
2024/01/31 12:11:18;;;;;;;8.10;4.80;;;13.30;15.30;;;;;;5042672;28;46497;-72
2024/01/31 12:13:45;;;;;;;8.83;5.00;;;13.20;15.30;;;;;;5043944;28;46613;-72
2024/01/31 12:16:11;;;;;;;10.00;5.23;;;13.20;14.70;;;;;;5048827;28;46494;-72
2024/01/31 12:18:37;;;;;;;10.50;5.40;;;13.10;14.70;;;;;;5036430;28;47011;-71
2024/01/31 12:21:04;;;;;;;13.80;5.50;;;13.10;15.10;;;;;;5037852;28;46517;-72
2024/01/31 12:23:30;;;;;;;9.83;5.30;;;12.90;15.20;;;;;;5039638;28;46452;-71
2024/01/31 12:25:57;;;;;;;7.63;4.70;;;12.90;16.30;;;;;;5037840;28;46980;-72
2024/01/31 12:28:23;;;;;;;9.33;4.80;;;12.90;15.80;;;;;;5039696;28;46499;-72
2024/01/31 12:30:49;;;;;;;7.67;4.83;;;12.80;15.90;;;;;;5037955;28;46487;-72
2024/01/31 12:33:14;;;;;;;13.63;5.10;;;12.70;16.30;;;;;;5034210;28;46441;-74
2024/01/31 12:35:40;;;;;;;9.70;5.13;;;12.80;16.40;;;;;;5017531;28;46521;-71
2024/01/31 12:38:06;;;;;;;12.50;5.20;;;12.80;16.50;;;;;;5033995;28;46528;-70
2024/01/31 12:40:32;;;;;;;7.93;5.17;;;12.90;16.60;;;;;;5038328;28;46491;-70
2024/01/31 12:42:58;;;;;;;13.00;4.90;;;12.90;16.50;;;;;;5024328;28;46914;-67
2024/01/31 12:45:23;;;;;;;9.20;4.33;;;13.10;16.50;;;;;;5046107;28;46392;-68